Main page
METAR-TAF:

METAR-TAF

Airports :

Vientiane, Laos

Wattay International Airport

latitude: 17-57N, longitude: 102-34E, elevation: 171 m

Current weather observation

The report was made 24 minutes ago, at 13:30 UTC
Wind 2 kt from the East
Temperature 26°C
Humidity 70%
Pressure 1012 hPa
Visibility: 3000 m
mist

METAR: VLVT 281330Z 09002KT 3000 BR NSC 26/20 Q1012 NOSIG

Time: 20:54 (13:54 UTC)

Forecast

The report was made 2 hours and 54 minutes ago, at 11:00 UTC
Forecast valid from 28 at 12 UTC to 29 at 12 UTC
Wind 6 kt from the Southwest
Visibility: 7000 m
Scattered clouds at a height of 2000 ft
Scattered clouds at a height of 5000 ft
Temporary
from 28 at 14 UTC to 28 at 20 UTC
Visibility: 4000 m
Few clouds at a height of 4000 ft
mist

TAF: VLVT 281100Z 2812/2912 22006KT 7000 SCT020 SCT050 TEMPO 2814/2820 4000 BR FEW040

Weather observations and forecasts of more than 4000 airports (METAR and TAF reports).

The available stations are represented by yellow and red dots on the map.

Hover mouse over dot to see the name of the station.

Then click to see weather observations and forecasts.

To change the map : click on the green buttons with a black cross to zoom in, on the green button with a dash to zoom out, or on the green arrows for adjacent maps.


METAR-TAF: